createdAt,value
2023-04-24T00:01:15.393Z,99640.28
2023-04-24T00:06:38.444Z,99633.75
2023-04-24T00:12:00.358Z,99631.50
2023-04-24T00:17:22.219Z,99628.16
2023-04-24T00:22:44.048Z,99628.22
2023-04-24T00:28:05.848Z,99616.97
2023-04-24T00:33:27.680Z,99615.41
2023-04-24T00:38:49.512Z,99604.44
2023-04-24T00:44:11.477Z,99613.13
2023-04-24T00:49:33.296Z,99607.69
2023-04-24T00:54:55.104Z,99609.94
2023-04-24T01:00:18.116Z,99622.00
2023-04-24T01:05:40.041Z,99609.94
2023-04-24T01:11:04.682Z,99609.03
2023-04-24T01:16:26.706Z,99605.56
2023-04-24T01:21:51.726Z,99601.31
2023-04-24T01:27:14.238Z,99613.78
2023-04-24T01:32:37.900Z,99599.78
2023-04-24T01:37:59.854Z,99610.16
2023-04-24T01:43:22.596Z,99620.56
2023-04-24T01:48:46.523Z,99595.97
2023-04-24T01:54:08.340Z,99581.16
2023-04-24T01:59:30.962Z,99593.28
2023-04-24T02:04:52.762Z,99589.59
2023-04-24T02:10:14.573Z,99580.97
2023-04-24T02:15:36.390Z,99572.00
2023-04-24T02:20:58.228Z,99573.22
2023-04-24T02:26:20.138Z,99554.25
2023-04-24T02:31:41.991Z,99556.97
2023-04-24T02:37:03.903Z,99554.84
2023-04-24T02:42:25.749Z,99540.94
2023-04-24T02:47:47.567Z,99539.19
2023-04-24T02:53:09.432Z,99560.97
2023-04-24T02:58:31.223Z,99566.38
2023-04-24T03:03:53.230Z,99560.97
2023-04-24T03:09:15.100Z,99560.81
2023-04-24T03:14:36.915Z,99547.97
2023-04-24T03:19:58.705Z,99549.00
2023-04-24T03:25:20.556Z,99549.72
2023-04-24T03:30:42.396Z,99554.50
2023-04-24T03:36:04.460Z,99567.56
2023-04-24T03:41:26.250Z,99564.09
2023-04-24T03:46:48.018Z,99562.56
2023-04-24T03:52:09.829Z,99554.34
2023-04-24T03:57:31.650Z,99559.78
2023-04-24T04:02:53.711Z,99559.88
2023-04-24T04:08:15.916Z,99550.56
2023-04-24T04:13:37.811Z,99563.72
2023-04-24T04:18:59.657Z,99558.53
2023-04-24T04:24:21.528Z,99544.66
2023-04-24T04:29:43.473Z,99555.09
2023-04-24T04:35:05.790Z,99552.88
2023-04-24T04:40:27.608Z,99554.91
2023-04-24T04:45:49.540Z,99551.13
2023-04-24T04:51:11.344Z,99552.63
2023-04-24T04:56:33.175Z,99552.59
2023-04-24T05:01:54.944Z,99536.72
2023-04-24T05:07:16.839Z,99548.47
2023-04-24T05:12:38.632Z,99532.50
2023-04-24T05:18:00.719Z,99532.16
2023-04-24T05:23:22.594Z,99523.88
2023-04-24T05:28:44.406Z,99528.75
2023-04-24T05:34:06.817Z,99528.88
2023-04-24T05:39:28.629Z,99516.47
2023-04-24T05:44:52.063Z,99530.44
2023-04-24T05:50:15.208Z,99523.31
2023-04-24T05:55:37.690Z,99526.75
2023-04-24T06:00:59.632Z,99516.75
2023-04-24T06:06:21.460Z,99515.69
2023-04-24T06:11:43.246Z,99516.09
2023-04-24T06:17:05.061Z,99519.44
2023-04-24T06:22:26.875Z,99511.50
2023-04-24T06:27:48.727Z,99496.97
2023-04-24T06:33:20.388Z,99489.78
2023-04-24T06:38:43.695Z,99498.06
2023-04-24T06:44:05.468Z,99487.69
2023-04-24T06:49:27.287Z,99495.19
2023-04-24T06:54:49.278Z,99491.91
2023-04-24T07:00:11.756Z,99495.81
2023-04-24T07:05:33.610Z,99494.44
2023-04-24T07:10:55.415Z,99487.22
2023-04-24T07:16:17.396Z,99485.84
2023-04-24T07:21:39.310Z,99477.56
2023-04-24T07:27:01.430Z,99469.97
2023-04-24T07:32:23.232Z,99471.47
2023-04-24T07:37:45.083Z,99474.31
2023-04-24T07:43:06.995Z,99478.63
2023-04-24T07:48:28.882Z,99475.19
2023-04-24T07:53:50.701Z,99476.13
2023-04-24T07:59:12.590Z,99462.59
2023-04-24T08:04:34.858Z,99468.38
2023-04-24T08:09:56.798Z,99465.25
2023-04-24T08:15:18.866Z,99458.94
2023-04-24T08:20:40.692Z,99468.16
2023-04-24T08:26:02.634Z,99471.63
2023-04-24T08:31:24.814Z,99471.56
2023-04-24T08:36:47.687Z,99450.56
2023-04-24T08:42:12.217Z,99449.47
2023-04-24T08:47:34.589Z,99461.84
2023-04-24T08:52:56.449Z,99454.72
2023-04-24T08:58:18.565Z,99457.81
2023-04-24T09:03:41.194Z,99450.53
2023-04-24T09:09:03.785Z,99453.97
2023-04-24T09:14:26.858Z,99454.66
2023-04-24T09:19:48.674Z,99451.63
2023-04-24T09:25:10.962Z,99446.91
2023-04-24T09:30:32.993Z,99442.28
2023-04-24T09:35:54.799Z,99435.16
2023-04-24T09:41:16.631Z,99429.81
2023-04-24T09:46:38.785Z,99439.09
2023-04-24T09:52:09.252Z,99427.94
2023-04-24T09:57:32.406Z,99418.81
2023-04-24T10:02:58.172Z,99411.34
2023-04-24T10:08:20.273Z,99409.38
2023-04-24T10:13:42.350Z,99396.50
2023-04-24T10:19:04.620Z,99409.00
2023-04-24T10:24:26.450Z,99407.06
2023-04-24T10:29:49.330Z,99391.88
2023-04-24T10:35:14.346Z,99388.38
2023-04-24T10:40:37.226Z,99385.72
2023-04-24T10:46:04.093Z,99380.59
2023-04-24T10:51:45.442Z,99378.44
2023-04-24T10:57:19.309Z,99371.97
2023-04-24T11:02:41.673Z,99360.72
2023-04-24T11:08:15.357Z,99364.25
2023-04-24T11:13:55.470Z,99367.38
2023-04-24T11:19:17.229Z,99367.16
2023-04-24T11:24:48.063Z,99362.06
2023-04-24T11:30:11.519Z,99358.97
2023-04-24T11:35:42.750Z,99350.78
2023-04-24T11:41:04.630Z,99345.59
2023-04-24T11:46:30.644Z,99347.22
2023-04-24T11:51:58.053Z,99352.69
2023-04-24T11:57:23.208Z,99327.66
2023-04-24T12:02:45.474Z,99331.03
2023-04-24T12:08:07.865Z,99318.03
2023-04-24T12:13:29.954Z,99323.78
2023-04-24T12:18:52.440Z,99305.22
2023-04-24T12:24:14.468Z,99302.00
2023-04-24T12:29:36.317Z,99307.19
2023-04-24T12:34:59.161Z,99309.53
2023-04-24T12:40:22.812Z,99303.47
2023-04-24T12:45:44.932Z,99284.03
2023-04-24T12:51:06.752Z,99283.47
2023-04-24T12:56:28.828Z,99302.59
2023-04-24T13:01:51.537Z,99311.38
2023-04-24T13:07:14.248Z,99313.16
2023-04-24T13:12:36.403Z,99297.06
2023-04-24T13:17:58.381Z,99298.31
2023-04-24T13:23:20.299Z,99304.81
2023-04-24T13:28:42.112Z,99298.50
2023-04-24T13:34:04.787Z,99308.53
2023-04-24T13:39:27.505Z,99318.13
2023-04-24T13:44:49.422Z,99327.19
2023-04-24T13:50:11.585Z,99320.06
2023-04-24T13:55:33.519Z,99340.16
2023-04-24T14:00:56.002Z,99330.53
2023-04-24T14:06:18.914Z,99328.72
2023-04-24T14:11:41.073Z,99332.75
2023-04-24T14:17:02.956Z,99302.88
2023-04-24T14:22:24.800Z,99294.59
2023-04-24T14:27:46.667Z,99273.63
2023-04-24T14:33:08.536Z,99264.22
2023-04-24T14:38:30.366Z,99246.28
2023-04-24T14:43:52.210Z,99246.44
2023-04-24T14:49:14.042Z,99237.88
2023-04-24T14:54:35.879Z,99237.53
2023-04-24T14:59:57.941Z,99220.09
2023-04-24T15:05:20.235Z,99224.47
2023-04-24T15:10:42.303Z,99229.00
2023-04-24T15:16:04.291Z,99227.94
2023-04-24T15:21:26.276Z,99221.44
2023-04-24T15:26:48.158Z,99219.13
2023-04-24T15:32:10.548Z,99206.09
2023-04-24T15:37:32.682Z,99205.41
2023-04-24T15:42:54.543Z,99198.19
2023-04-24T15:48:16.469Z,99185.88
2023-04-24T15:53:38.320Z,99189.78
2023-04-24T15:59:00.160Z,99171.31
2023-04-24T16:04:22.245Z,99164.69
2023-04-24T16:09:44.841Z,99170.44
2023-04-24T16:15:07.167Z,99173.84
2023-04-24T16:20:28.989Z,99176.84
2023-04-24T16:25:50.968Z,99165.53
2023-04-24T16:31:12.849Z,99175.88
2023-04-24T16:36:35.977Z,99178.00
2023-04-24T16:41:59.790Z,99175.50
2023-04-24T16:47:22.202Z,99170.91
2023-04-24T16:52:44.180Z,99167.75
2023-04-24T16:58:05.999Z,99168.34
2023-04-24T17:03:28.028Z,99165.47
2023-04-24T17:08:50.160Z,99166.25
2023-04-24T17:14:12.312Z,99152.47
2023-04-24T17:19:34.462Z,99162.56
2023-04-24T17:24:56.299Z,99150.19
2023-04-24T17:30:18.259Z,99170.88
2023-04-24T17:35:40.168Z,99167.03
2023-04-24T17:41:02.530Z,99168.69
2023-04-24T17:46:24.493Z,99158.22
2023-04-24T17:51:46.394Z,99170.69
2023-04-24T17:57:08.277Z,99175.22
2023-04-24T18:02:30.324Z,99164.19
2023-04-24T18:07:52.172Z,99150.66
2023-04-24T18:13:14.045Z,99171.16
2023-04-24T18:18:35.975Z,99163.94
2023-04-24T18:23:57.846Z,99160.00
2023-04-24T18:29:19.715Z,99176.22
2023-04-24T18:34:41.579Z,99168.19
2023-04-24T18:40:03.701Z,99181.03
2023-04-24T18:45:25.601Z,99192.78
2023-04-24T18:50:47.451Z,99187.75
2023-04-24T18:56:09.301Z,99194.09
2023-04-24T19:01:31.298Z,99195.25
2023-04-24T19:06:53.168Z,99194.81
2023-04-24T19:12:15.119Z,99200.56
2023-04-24T19:17:37.015Z,99199.38
2023-04-24T19:22:58.893Z,99210.31
2023-04-24T19:28:20.747Z,99195.63
2023-04-24T19:33:42.581Z,99214.00
2023-04-24T19:39:04.482Z,99214.06
2023-04-24T19:44:26.296Z,99214.88
2023-04-24T19:49:48.118Z,99203.59
2023-04-24T19:55:10.128Z,99193.97
2023-04-24T20:00:32.059Z,99195.50
2023-04-24T20:05:54.214Z,99198.59
2023-04-24T20:11:16.823Z,99202.81
2023-04-24T20:16:38.709Z,99217.56
2023-04-24T20:22:00.667Z,99227.13
2023-04-24T20:27:22.573Z,99222.31
2023-04-24T20:32:44.846Z,99227.50
2023-04-24T20:38:06.807Z,99225.75
2023-04-24T20:43:29.475Z,99230.00
2023-04-24T20:48:51.507Z,99238.38
2023-04-24T20:54:13.337Z,99225.63
2023-04-24T20:59:35.548Z,99220.34
2023-04-24T21:04:57.418Z,99233.34
2023-04-24T21:10:19.328Z,99235.03
2023-04-24T21:15:41.244Z,99231.19
2023-04-24T21:21:03.240Z,99224.44
2023-04-24T21:26:25.150Z,99231.84
2023-04-24T21:31:47.008Z,99239.88
2023-04-24T21:37:09.182Z,99237.00
2023-04-24T21:42:31.348Z,99229.00
2023-04-24T21:47:53.192Z,99245.00
2023-04-24T21:53:15.148Z,99242.38
2023-04-24T21:58:37.237Z,99242.78
2023-04-24T22:03:59.461Z,99244.44
2023-04-24T22:09:21.564Z,99239.94
2023-04-24T22:14:43.429Z,99241.03
2023-04-24T22:20:05.883Z,99227.59
2023-04-24T22:25:27.730Z,99238.50
2023-04-24T22:30:49.633Z,99231.31
2023-04-24T22:36:11.580Z,99220.38
2023-04-24T22:41:33.461Z,99223.91
2023-04-24T22:46:55.717Z,99239.91
2023-04-24T22:52:17.559Z,99248.63
2023-04-24T22:57:40.262Z,99229.19
2023-04-24T23:03:02.451Z,99247.34
2023-04-24T23:08:24.549Z,99236.63
2023-04-24T23:13:46.534Z,99239.50
2023-04-24T23:19:08.524Z,99246.56
2023-04-24T23:24:30.357Z,99238.03
2023-04-24T23:29:52.214Z,99244.34
2023-04-24T23:35:14.151Z,99239.72
2023-04-24T23:40:36.149Z,99241.09
2023-04-24T23:45:57.970Z,99250.47
2023-04-24T23:51:20.036Z,99240.09
2023-04-24T23:56:43.363Z,99222.97
